createdAt,value
2018-03-23T00:01:44.663Z,5.06
2018-03-23T00:04:13.274Z,4.92
2018-03-23T00:06:41.849Z,4.92
2018-03-23T00:09:12.246Z,4.89
2018-03-23T00:11:41.017Z,4.82
2018-03-23T00:14:09.539Z,4.79
2018-03-23T00:16:38.227Z,4.81
2018-03-23T00:19:07.123Z,4.87
2018-03-23T00:21:35.688Z,4.82
2018-03-23T00:24:06.180Z,4.87
2018-03-23T00:26:34.710Z,4.91
2018-03-23T00:29:03.342Z,4.89
2018-03-23T00:31:31.881Z,4.94
2018-03-23T00:34:00.446Z,4.91
2018-03-23T00:36:28.928Z,4.90
2018-03-23T00:38:57.430Z,4.83
2018-03-23T00:41:26.003Z,4.76
2018-03-23T00:43:54.497Z,4.75
2018-03-23T00:46:23.164Z,4.62
2018-03-23T00:48:51.734Z,4.65
2018-03-23T00:51:20.225Z,4.67
2018-03-23T00:53:48.816Z,4.58
2018-03-23T00:56:17.394Z,4.55
2018-03-23T00:58:45.916Z,4.45
2018-03-23T01:01:14.690Z,4.51
2018-03-23T01:03:43.354Z,4.48
2018-03-23T01:06:11.938Z,4.52
2018-03-23T01:08:40.555Z,4.55
2018-03-23T01:11:09.109Z,4.53
2018-03-23T01:13:37.613Z,4.52
2018-03-23T01:16:06.277Z,4.47
2018-03-23T01:18:34.944Z,4.47
2018-03-23T01:21:03.499Z,4.47
2018-03-23T01:23:32.990Z,4.51
2018-03-23T01:26:01.529Z,4.43
2018-03-23T01:28:29.948Z,4.46
2018-03-23T01:30:58.631Z,4.42
2018-03-23T01:33:27.090Z,4.46
2018-03-23T01:35:55.529Z,4.44
2018-03-23T01:38:24.053Z,4.48
2018-03-23T01:40:52.508Z,4.47
2018-03-23T01:43:20.961Z,4.41
2018-03-23T01:45:49.601Z,4.38
2018-03-23T01:48:18.156Z,4.45
2018-03-23T01:50:46.729Z,4.53
2018-03-23T01:53:27.215Z,4.48
2018-03-23T01:55:55.623Z,4.48
2018-03-23T01:58:24.069Z,4.43
2018-03-23T02:00:52.595Z,4.48
2018-03-23T02:03:21.076Z,4.49
2018-03-23T02:05:49.746Z,4.53
2018-03-23T02:08:18.498Z,4.53
2018-03-23T02:10:46.962Z,4.43
2018-03-23T02:13:15.567Z,4.40
2018-03-23T02:15:44.355Z,4.41
2018-03-23T02:18:13.043Z,4.38
2018-03-23T02:20:41.622Z,4.34
2018-03-23T02:23:10.307Z,4.31
2018-03-23T02:25:38.891Z,4.31
2018-03-23T02:28:07.517Z,4.30
2018-03-23T02:30:36.283Z,4.30
2018-03-23T02:33:04.943Z,4.30
2018-03-23T02:35:34.555Z,4.26
2018-03-23T02:38:03.162Z,4.22
2018-03-23T02:40:31.691Z,4.14
2018-03-23T02:43:00.112Z,4.26
2018-03-23T02:45:28.601Z,4.15
2018-03-23T02:47:57.095Z,4.22
2018-03-23T02:50:25.752Z,4.32
2018-03-23T02:52:54.701Z,4.22
2018-03-23T02:55:23.218Z,4.37
2018-03-23T02:57:51.708Z,4.47
2018-03-23T03:00:20.290Z,4.53
2018-03-23T03:02:48.878Z,4.50
2018-03-23T03:05:17.388Z,4.48
2018-03-23T03:07:46.057Z,4.38
2018-03-23T03:10:14.720Z,4.32
2018-03-23T03:12:43.549Z,4.26
2018-03-23T03:15:12.302Z,4.33
2018-03-23T03:17:40.991Z,4.26
2018-03-23T03:20:09.577Z,4.11
2018-03-23T03:22:38.330Z,4.04
2018-03-23T03:25:07.048Z,3.98
2018-03-23T03:27:35.632Z,4.17
2018-03-23T03:30:04.739Z,4.26
2018-03-23T03:32:33.355Z,4.31
2018-03-23T03:35:01.900Z,4.34
2018-03-23T03:37:30.482Z,4.26
2018-03-23T03:39:59.061Z,4.12
2018-03-23T03:42:31.466Z,4.03
2018-03-23T03:45:00.022Z,4.05
2018-03-23T03:47:28.505Z,4.03
2018-03-23T03:49:57.192Z,4.05
2018-03-23T03:52:25.668Z,4.07
2018-03-23T03:54:54.138Z,3.97
2018-03-23T03:57:22.654Z,3.79
2018-03-23T03:59:51.141Z,3.94
2018-03-23T04:02:19.599Z,4.03
2018-03-23T04:04:52.112Z,4.15
2018-03-23T04:07:20.642Z,4.15
2018-03-23T04:09:49.151Z,4.04
2018-03-23T04:12:24.408Z,4.11
2018-03-23T04:14:52.947Z,4.01
2018-03-23T04:17:23.521Z,3.94
2018-03-23T04:19:52.061Z,3.75
2018-03-23T04:22:20.743Z,3.51
2018-03-23T04:24:49.326Z,3.58
2018-03-23T04:27:17.808Z,3.70
2018-03-23T04:29:46.396Z,3.85
2018-03-23T04:32:14.875Z,3.90
2018-03-23T04:34:43.357Z,3.91
2018-03-23T04:37:11.839Z,3.96
2018-03-23T04:39:53.324Z,4.01
2018-03-23T04:42:21.804Z,3.83
2018-03-23T04:44:50.295Z,3.83
2018-03-23T04:47:18.868Z,3.79
2018-03-23T04:49:47.350Z,3.91
2018-03-23T04:52:15.856Z,3.84
2018-03-23T04:54:44.725Z,3.73
2018-03-23T04:57:13.241Z,3.90
2018-03-23T04:59:41.787Z,3.95
2018-03-23T05:02:10.392Z,3.96
2018-03-23T05:04:38.925Z,3.91
2018-03-23T05:07:07.458Z,3.90
2018-03-23T05:09:36.262Z,3.86
2018-03-23T05:12:05.085Z,3.79
2018-03-23T05:14:33.671Z,3.83
2018-03-23T05:17:02.485Z,3.85
2018-03-23T05:19:30.969Z,3.78
2018-03-23T05:21:59.520Z,3.80
2018-03-23T05:24:28.309Z,3.82
2018-03-23T05:26:56.827Z,3.84
2018-03-23T05:29:25.405Z,3.87
2018-03-23T05:31:54.021Z,3.91
2018-03-23T05:34:22.773Z,3.87
2018-03-23T05:36:51.260Z,3.58
2018-03-23T05:39:19.848Z,3.67
2018-03-23T05:41:48.353Z,3.80
2018-03-23T05:44:17.038Z,3.87
2018-03-23T05:46:45.598Z,3.54
2018-03-23T05:49:14.183Z,3.68
2018-03-23T05:51:42.705Z,3.97
2018-03-23T05:54:11.447Z,4.10
2018-03-23T05:56:40.129Z,4.06
2018-03-23T05:59:08.615Z,4.14
2018-03-23T06:01:37.309Z,4.11
2018-03-23T06:04:06.118Z,3.90
2018-03-23T06:06:35.117Z,4.04
2018-03-23T06:09:03.929Z,3.98
2018-03-23T06:11:32.687Z,3.96
2018-03-23T06:14:01.336Z,4.03
2018-03-23T06:16:30.138Z,3.97
2018-03-23T06:18:58.722Z,4.04
2018-03-23T06:21:27.364Z,4.11
2018-03-23T06:23:56.110Z,4.18
2018-03-23T06:26:24.573Z,4.17
2018-03-23T06:28:53.170Z,3.96
2018-03-23T06:31:21.783Z,3.75
2018-03-23T06:33:50.419Z,3.89
2018-03-23T06:36:19.003Z,4.03
2018-03-23T06:38:47.788Z,4.01
2018-03-23T06:41:16.677Z,3.93
2018-03-23T06:43:45.266Z,3.87
2018-03-23T06:46:13.896Z,3.94
2018-03-23T06:48:42.475Z,3.84
2018-03-23T06:51:11.268Z,4.06
2018-03-23T06:53:39.950Z,4.14
2018-03-23T06:56:08.721Z,4.21
2018-03-23T06:58:37.528Z,4.01
2018-03-23T07:01:06.081Z,4.16
2018-03-23T07:03:34.592Z,4.30
2018-03-23T07:06:03.176Z,4.40
2018-03-23T07:08:31.742Z,4.33
2018-03-23T07:11:00.329Z,4.37
2018-03-23T07:13:28.907Z,4.30
2018-03-23T07:15:58.228Z,4.39
2018-03-23T07:18:26.814Z,4.04
2018-03-23T07:20:55.248Z,4.10
2018-03-23T07:23:23.889Z,3.97
2018-03-23T07:25:54.465Z,4.21
2018-03-23T07:28:22.953Z,4.34
2018-03-23T07:30:51.531Z,4.37
2018-03-23T07:33:20.070Z,4.43
2018-03-23T07:35:48.785Z,4.58
2018-03-23T07:38:17.274Z,4.67
2018-03-23T07:40:47.806Z,4.63
2018-03-23T07:43:16.298Z,4.64
2018-03-23T07:45:45.129Z,4.66
2018-03-23T07:48:14.075Z,4.53
2018-03-23T07:50:43.892Z,4.63
2018-03-23T07:53:12.675Z,4.66
2018-03-23T07:55:41.448Z,4.73
2018-03-23T07:58:12.280Z,4.67
2018-03-23T08:00:41.104Z,4.48
2018-03-23T08:03:09.669Z,4.57
2018-03-23T08:05:38.754Z,4.72
2018-03-23T08:08:07.467Z,4.66
2018-03-23T08:10:36.483Z,4.64
2018-03-23T08:13:05.058Z,4.55
2018-03-23T08:15:33.710Z,4.52
2018-03-23T08:18:02.184Z,4.68
2018-03-23T08:20:30.708Z,4.68
2018-03-23T08:22:59.375Z,4.78
2018-03-23T08:25:27.948Z,4.80
2018-03-23T08:27:56.636Z,4.88
2018-03-23T08:30:25.930Z,4.96
2018-03-23T08:38:37.135Z,4.89
2018-03-23T08:41:06.006Z,4.90
2018-03-23T08:43:35.767Z,4.98
2018-03-23T08:46:05.764Z,5.16
2018-03-23T08:48:35.171Z,5.29
2018-03-23T08:51:03.756Z,5.15
2018-03-23T08:53:35.044Z,5.07
2018-03-23T08:56:04.282Z,5.05
2018-03-23T08:58:32.682Z,5.16
2018-03-23T09:01:07.070Z,5.14
2018-03-23T09:03:35.584Z,5.13
2018-03-23T09:06:04.004Z,5.08
2018-03-23T09:08:32.424Z,4.98
2018-03-23T09:11:00.842Z,5.01
2018-03-23T09:13:29.294Z,5.16
2018-03-23T09:15:57.835Z,5.45
2018-03-23T09:18:26.177Z,5.61
2018-03-23T09:20:54.620Z,5.71
2018-03-23T09:23:23.229Z,5.86
2018-03-23T09:25:52.432Z,5.90
2018-03-23T09:28:20.988Z,5.89
2018-03-23T09:30:49.673Z,6.13
2018-03-23T09:33:18.352Z,6.14
2018-03-23T09:35:46.907Z,6.20
2018-03-23T09:38:15.423Z,6.16
2018-03-23T09:40:43.862Z,5.78
2018-03-23T09:43:12.725Z,6.04
2018-03-23T09:45:41.889Z,6.23
2018-03-23T09:48:10.539Z,6.24
2018-03-23T09:50:39.028Z,6.01
2018-03-23T09:53:07.802Z,6.01
2018-03-23T09:55:36.336Z,5.95
2018-03-23T09:58:04.945Z,6.09
2018-03-23T10:00:33.459Z,5.98
2018-03-23T10:03:01.852Z,5.86
2018-03-23T10:05:30.303Z,5.88
2018-03-23T10:07:59.212Z,5.92
2018-03-23T10:10:27.591Z,6.06
2018-03-23T10:12:55.999Z,6.15
2018-03-23T10:15:24.884Z,6.21
2018-03-23T10:26:27.834Z,5.99
2018-03-23T10:28:56.201Z,6.05
2018-03-23T10:31:24.601Z,6.13
2018-03-23T10:33:53.512Z,6.00
2018-03-23T10:36:22.278Z,6.25
2018-03-23T10:38:50.754Z,6.26
2018-03-23T10:41:19.443Z,6.40
2018-03-23T10:43:47.981Z,6.36
2018-03-23T10:46:16.407Z,6.29
2018-03-23T10:48:44.947Z,6.38
2018-03-23T10:51:13.633Z,6.56
2018-03-23T10:53:42.387Z,6.75
2018-03-23T10:56:12.630Z,6.86
2018-03-23T10:58:41.226Z,6.88
2018-03-23T11:01:15.994Z,6.96
2018-03-23T11:03:44.477Z,6.89
2018-03-23T11:06:12.965Z,6.92
2018-03-23T11:08:41.446Z,6.85
2018-03-23T11:11:09.873Z,6.88
2018-03-23T11:13:38.828Z,7.03
2018-03-23T11:16:07.737Z,7.38
2018-03-23T11:18:36.302Z,7.59
2018-03-23T11:21:04.686Z,7.71
2018-03-23T11:23:33.137Z,7.93
2018-03-23T11:26:01.659Z,7.84
2018-03-23T11:34:15.938Z,7.53
2018-03-23T11:36:44.690Z,7.44
2018-03-23T11:39:13.122Z,7.42
2018-03-23T11:41:42.031Z,7.53
2018-03-23T11:44:10.901Z,7.78
2018-03-23T11:46:39.991Z,7.61
2018-03-23T11:49:08.996Z,7.38
2018-03-23T11:51:38.268Z,7.34
2018-03-23T11:54:06.918Z,7.28
2018-03-23T11:56:36.590Z,7.40
2018-03-23T11:59:04.990Z,7.52
2018-03-23T12:01:33.501Z,7.56
2018-03-23T12:04:02.407Z,7.54
2018-03-23T12:06:31.146Z,7.46
2018-03-23T12:11:51.765Z,7.64
2018-03-23T12:14:21.985Z,7.47
2018-03-23T12:16:50.459Z,7.41
2018-03-23T12:19:19.107Z,7.38
2018-03-23T12:21:47.534Z,7.78
2018-03-23T12:24:17.082Z,7.82
2018-03-23T12:32:30.118Z,8.91
2018-03-23T12:34:58.735Z,8.76
2018-03-23T12:37:27.112Z,8.57
2018-03-23T12:39:56.468Z,8.53
2018-03-23T12:42:24.846Z,8.09
2018-03-23T12:44:53.338Z,8.34
2018-03-23T12:47:21.771Z,8.11
2018-03-23T12:50:01.903Z,8.00
2018-03-23T12:52:30.547Z,7.99
2018-03-23T12:54:58.877Z,8.12
2018-03-23T12:57:27.291Z,8.12
2018-03-23T12:59:55.826Z,8.06
2018-03-23T13:02:24.198Z,7.98
2018-03-23T13:04:52.658Z,7.97
2018-03-23T13:07:21.058Z,8.12
2018-03-23T13:09:49.424Z,8.36
2018-03-23T13:12:17.797Z,8.53
2018-03-23T13:14:46.288Z,8.45
2018-03-23T13:17:14.741Z,8.13
2018-03-23T13:19:43.250Z,8.06
2018-03-23T13:22:13.524Z,8.02
2018-03-23T13:24:42.065Z,8.02
2018-03-23T13:27:10.598Z,8.39
2018-03-23T13:29:39.122Z,8.46
2018-03-23T13:32:07.529Z,8.45
2018-03-23T13:34:35.988Z,8.36
2018-03-23T13:37:04.901Z,8.57
2018-03-23T13:39:33.271Z,8.27
2018-03-23T13:42:01.640Z,8.21
2018-03-23T13:44:31.768Z,8.35
2018-03-23T13:47:00.138Z,8.50
2018-03-23T13:49:30.576Z,8.27
2018-03-23T13:51:58.987Z,8.37
2018-03-23T13:54:27.347Z,8.42
2018-03-23T13:56:55.722Z,8.54
2018-03-23T13:59:29.644Z,8.60
2018-03-23T14:01:58.033Z,8.85
2018-03-23T14:04:26.451Z,8.79
2018-03-23T14:06:54.862Z,8.88
2018-03-23T14:09:23.203Z,9.03
2018-03-23T14:11:51.602Z,8.92
2018-03-23T14:14:20.038Z,8.78
2018-03-23T14:16:48.502Z,8.77
2018-03-23T14:19:16.991Z,8.62
2018-03-23T14:21:45.739Z,8.66
2018-03-23T14:24:14.278Z,8.59
2018-03-23T14:26:42.702Z,8.53
2018-03-23T14:29:11.355Z,8.44
2018-03-23T14:31:39.798Z,8.37
2018-03-23T14:34:08.374Z,8.22
2018-03-23T14:36:37.388Z,8.02
2018-03-23T14:39:05.908Z,7.97
2018-03-23T14:41:34.253Z,8.07
2018-03-23T14:44:02.722Z,8.08
2018-03-23T14:46:31.120Z,8.02
2018-03-23T14:48:59.497Z,7.84
2018-03-23T14:51:27.995Z,7.89
2018-03-23T14:53:56.396Z,7.88
2018-03-23T14:56:24.785Z,7.94
2018-03-23T15:01:58.197Z,8.08
2018-03-23T15:04:26.806Z,8.18
2018-03-23T15:06:55.183Z,7.91
2018-03-23T15:09:28.250Z,7.96
2018-03-23T15:11:56.629Z,7.99
2018-03-23T15:14:31.985Z,8.01
2018-03-23T15:17:00.350Z,8.03
2018-03-23T15:19:28.747Z,7.99
2018-03-23T15:21:57.699Z,7.95
2018-03-23T15:24:26.095Z,7.97
2018-03-23T15:26:54.568Z,7.96
2018-03-23T15:29:23.061Z,7.89
2018-03-23T15:31:52.044Z,7.95
2018-03-23T15:34:20.507Z,8.00
2018-03-23T15:36:50.428Z,7.98
2018-03-23T15:39:18.824Z,8.04
2018-03-23T15:41:47.249Z,7.88
2018-03-23T15:44:16.794Z,7.94
2018-03-23T15:46:45.160Z,7.90
2018-03-23T15:49:13.572Z,8.00
2018-03-23T15:51:42.577Z,8.06
2018-03-23T15:54:11.056Z,7.92
2018-03-23T15:56:39.514Z,7.83
2018-03-23T15:59:08.004Z,7.86
2018-03-23T16:01:36.431Z,7.74
2018-03-23T16:04:04.813Z,7.72
2018-03-23T16:06:33.198Z,7.75
2018-03-23T16:09:01.603Z,7.75
2018-03-23T16:11:30.025Z,7.70
2018-03-23T16:13:58.812Z,7.74
2018-03-23T16:16:27.273Z,7.75
2018-03-23T16:18:55.860Z,7.81
2018-03-23T16:21:25.105Z,7.87
2018-03-23T16:23:54.096Z,7.80
2018-03-23T16:26:22.602Z,7.73
2018-03-23T16:28:51.818Z,7.71
2018-03-23T16:31:20.278Z,7.62
2018-03-23T16:33:48.780Z,7.58
2018-03-23T16:36:17.319Z,7.49
2018-03-23T16:38:45.763Z,7.41
2018-03-23T16:41:14.533Z,7.42
2018-03-23T16:43:44.027Z,7.52
2018-03-23T16:46:12.560Z,7.55
2018-03-23T16:48:41.097Z,7.63
2018-03-23T16:51:10.293Z,7.76
2018-03-23T16:53:40.921Z,7.80
2018-03-23T16:56:09.913Z,7.72
2018-03-23T16:58:38.402Z,7.76
2018-03-23T17:01:06.764Z,7.68
2018-03-23T17:03:35.140Z,7.68
2018-03-23T17:06:03.644Z,7.73
2018-03-23T17:08:32.085Z,7.63
2018-03-23T17:11:00.754Z,7.58
2018-03-23T17:13:29.176Z,7.59
2018-03-23T17:15:57.605Z,7.60
2018-03-23T17:18:25.984Z,7.61
2018-03-23T17:20:54.388Z,7.51
2018-03-23T17:23:23.385Z,7.54
2018-03-23T17:25:51.817Z,7.46
2018-03-23T17:28:20.392Z,7.42
2018-03-23T17:30:48.906Z,7.44
2018-03-23T17:33:17.375Z,7.44
2018-03-23T17:35:47.565Z,7.43
2018-03-23T17:38:16.152Z,7.42
2018-03-23T17:40:44.723Z,7.43
2018-03-23T17:43:13.730Z,7.47
2018-03-23T17:45:42.130Z,7.46
2018-03-23T17:48:10.667Z,7.36
2018-03-23T17:50:39.887Z,7.39
2018-03-23T17:53:09.392Z,7.35
2018-03-23T17:55:37.744Z,7.41
2018-03-23T17:58:06.176Z,7.47
2018-03-23T18:00:34.610Z,7.52
2018-03-23T18:03:03.020Z,7.45
2018-03-23T18:05:31.430Z,7.46
2018-03-23T18:08:00.073Z,7.43
2018-03-23T18:10:28.656Z,7.36
2018-03-23T18:12:57.130Z,7.37
2018-03-23T18:15:25.548Z,7.33
2018-03-23T18:17:54.348Z,7.32
2018-03-23T18:20:23.475Z,7.20
2018-03-23T18:22:52.021Z,7.13
2018-03-23T18:25:21.815Z,7.16
2018-03-23T18:27:50.711Z,7.07
2018-03-23T18:30:19.908Z,7.00
2018-03-23T18:32:49.431Z,6.98
2018-03-23T18:35:18.093Z,6.97
2018-03-23T18:37:46.491Z,6.96
2018-03-23T18:40:15.056Z,6.86
2018-03-23T18:42:43.606Z,6.81
2018-03-23T18:45:12.273Z,6.68
2018-03-23T18:47:40.898Z,6.71
2018-03-23T18:50:09.302Z,6.62
2018-03-23T18:52:38.076Z,6.65
2018-03-23T18:55:06.577Z,6.59
2018-03-23T18:57:35.052Z,6.57
2018-03-23T19:00:11.197Z,6.49
2018-03-23T19:02:40.223Z,6.49
2018-03-23T19:05:08.701Z,6.50
2018-03-23T19:07:37.194Z,6.59
2018-03-23T19:10:05.981Z,6.63
2018-03-23T19:12:34.636Z,6.64
2018-03-23T19:15:03.136Z,6.56
2018-03-23T19:17:31.673Z,6.56
2018-03-23T19:20:00.256Z,6.60
2018-03-23T19:22:29.056Z,6.53
2018-03-23T19:24:58.040Z,6.54
2018-03-23T19:27:26.533Z,6.63
2018-03-23T19:29:55.565Z,6.57
2018-03-23T19:32:24.784Z,6.56
2018-03-23T19:34:53.666Z,6.57
2018-03-23T19:37:22.371Z,6.64
2018-03-23T19:39:51.768Z,6.59
2018-03-23T19:42:21.413Z,6.65
2018-03-23T19:44:50.147Z,6.67
2018-03-23T19:47:19.586Z,6.66
2018-03-23T19:49:48.829Z,6.63
2018-03-23T19:52:17.992Z,6.58
2018-03-23T19:54:47.403Z,6.55
2018-03-23T19:57:16.343Z,6.53
2018-03-23T19:59:45.801Z,6.47
2018-03-23T20:02:16.013Z,6.44
2018-03-23T20:04:45.706Z,6.41
2018-03-23T20:07:14.979Z,6.34
2018-03-23T20:09:44.528Z,6.33
2018-03-23T20:12:13.828Z,6.35
2018-03-23T20:14:42.833Z,6.32
2018-03-23T20:17:12.430Z,6.34
2018-03-23T20:19:42.702Z,6.30
2018-03-23T20:22:12.868Z,6.16
2018-03-23T20:24:43.649Z,6.21
2018-03-23T20:27:17.930Z,6.22
2018-03-23T20:29:48.552Z,6.15
2018-03-23T20:32:22.784Z,6.20
2018-03-23T20:34:51.350Z,6.13
2018-03-23T20:37:20.843Z,6.17
2018-03-23T20:39:49.535Z,6.22
2018-03-23T20:42:18.366Z,6.21
2018-03-23T20:44:47.645Z,6.22
2018-03-23T20:47:16.763Z,6.17
2018-03-23T20:49:45.748Z,6.18
2018-03-23T20:52:17.866Z,6.23
2018-03-23T20:54:48.192Z,6.27
2018-03-23T20:57:16.918Z,6.22
2018-03-23T20:59:45.587Z,6.20
2018-03-23T21:02:14.510Z,6.28
2018-03-23T21:04:44.053Z,6.26
2018-03-23T21:07:13.913Z,6.36
2018-03-23T21:09:43.497Z,6.41
2018-03-23T21:12:12.494Z,6.42
2018-03-23T21:14:43.046Z,6.41
2018-03-23T21:17:13.119Z,6.41
2018-03-23T21:19:42.362Z,6.46
2018-03-23T21:22:11.718Z,6.45
2018-03-23T21:24:41.807Z,6.41
2018-03-23T21:27:11.894Z,6.34
2018-03-23T21:29:40.687Z,6.42
2018-03-23T21:32:09.411Z,6.43
2018-03-23T21:34:37.881Z,6.38
2018-03-23T21:37:06.289Z,6.34
2018-03-23T21:39:35.099Z,6.36
2018-03-23T21:42:03.491Z,6.36
2018-03-23T21:44:31.903Z,6.36
2018-03-23T21:47:00.383Z,6.31
2018-03-23T21:49:28.853Z,6.35
2018-03-23T21:51:57.266Z,6.34
2018-03-23T21:54:26.167Z,6.56
2018-03-23T21:56:54.651Z,6.55
2018-03-23T21:59:23.125Z,6.64
2018-03-23T22:01:52.530Z,6.77
2018-03-23T22:04:21.112Z,6.78
2018-03-23T22:06:49.678Z,6.61
2018-03-23T22:09:20.227Z,6.43
2018-03-23T22:11:49.979Z,6.31
2018-03-23T22:14:18.465Z,6.33
2018-03-23T22:16:47.768Z,6.33
2018-03-23T22:19:16.390Z,6.28
2018-03-23T22:21:45.340Z,6.28
2018-03-23T22:24:14.182Z,6.30
2018-03-23T22:26:43.174Z,6.26
2018-03-23T22:29:12.121Z,6.21
2018-03-23T22:31:40.806Z,6.28
2018-03-23T22:34:09.343Z,6.30
2018-03-23T22:36:37.748Z,6.34
2018-03-23T22:39:06.273Z,6.29
2018-03-23T22:41:34.690Z,6.26
2018-03-23T22:44:03.172Z,6.20
2018-03-23T22:46:31.770Z,6.21
2018-03-23T22:49:00.301Z,6.14
2018-03-23T22:51:28.768Z,6.18
2018-03-23T22:53:57.341Z,6.15
2018-03-23T22:56:27.551Z,6.13
2018-03-23T22:58:55.970Z,6.09
2018-03-23T23:01:24.814Z,6.01
2018-03-23T23:03:59.317Z,5.98
2018-03-23T23:06:28.445Z,5.97
2018-03-23T23:08:56.838Z,5.97
2018-03-23T23:11:25.409Z,5.96
2018-03-23T23:13:54.101Z,6.04
2018-03-23T23:16:22.636Z,5.99
2018-03-23T23:18:52.761Z,6.05
2018-03-23T23:21:21.854Z,5.99
2018-03-23T23:23:50.379Z,5.93
2018-03-23T23:26:18.814Z,5.93
2018-03-23T23:28:47.558Z,5.96
2018-03-23T23:31:16.189Z,5.97
2018-03-23T23:33:44.816Z,6.01
2018-03-23T23:36:13.800Z,5.98
2018-03-23T23:38:42.366Z,6.00
2018-03-23T23:41:10.994Z,5.99
2018-03-23T23:43:40.079Z,5.98
2018-03-23T23:46:08.599Z,5.95
2018-03-23T23:48:37.021Z,6.00
2018-03-23T23:51:05.530Z,6.01
2018-03-23T23:53:33.966Z,6.13
2018-03-23T23:56:02.384Z,6.13
2018-03-23T23:58:30.925Z,6.14
